Terminal Aerodrome Forecast
Issued by NWS Portland, ME

Home | Current Version | Previous Version | Text Only | Print | Product List | Glossary On
Versions: 1 2 3 4 5 6 7 8 9 10 11 12 13 14 15 16 17 18 19 20 21
000
FTUS41 KGYX 042320
TAFCON
TAF
KCON 042320Z 0500/0524 05006KT 5SM -RADZ BR OVC007
     FM050300 35005KT 5SM -RADZ OVC007
     FM050900 02009KT 5SM BR OVC006
     FM051500 04010G20KT P6SM OVC015=

USA.gov is the U.S. government's official web portal to all federal, state and local government web resources and services.